sensor_id;sensor_type;location;lat;lon;timestamp;P1;durP1;ratioP1;P2;durP2;ratioP2
12177;SDS011;6152;48.728;9.256;2023-03-03T00:00:52;37.97;;;19.52;;
12177;SDS011;6152;48.728;9.256;2023-03-03T00:03:19;36.35;;;18.65;;
12177;SDS011;6152;48.728;9.256;2023-03-03T00:05:47;38.90;;;19.80;;
12177;SDS011;6152;48.728;9.256;2023-03-03T00:08:14;39.10;;;20.85;;
12177;SDS011;6152;48.728;9.256;2023-03-03T00:10:41;35.17;;;18.80;;
12177;SDS011;6152;48.728;9.256;2023-03-03T00:13:19;37.45;;;20.38;;
12177;SDS011;6152;48.728;9.256;2023-03-03T00:15:47;36.00;;;18.00;;
12177;SDS011;6152;48.728;9.256;2023-03-03T00:18:27;37.75;;;20.27;;
12177;SDS011;6152;48.728;9.256;2023-03-03T00:20:59;37.67;;;18.93;;
12177;SDS011;6152;48.728;9.256;2023-03-03T00:26:21;35.57;;;19.33;;
12177;SDS011;6152;48.728;9.256;2023-03-03T00:28:55;31.97;;;19.13;;
12177;SDS011;6152;48.728;9.256;2023-03-03T00:31:29;38.10;;;18.63;;
12177;SDS011;6152;48.728;9.256;2023-03-03T00:34:01;33.23;;;18.43;;
12177;SDS011;6152;48.728;9.256;2023-03-03T00:36:41;34.70;;;19.23;;
12177;SDS011;6152;48.728;9.256;2023-03-03T00:41:52;36.43;;;18.50;;
12177;SDS011;6152;48.728;9.256;2023-03-03T00:52:35;38.00;;;19.05;;
12177;SDS011;6152;48.728;9.256;2023-03-03T00:55:09;36.43;;;20.07;;
12177;SDS011;6152;48.728;9.256;2023-03-03T00:57:36;36.27;;;18.87;;
12177;SDS011;6152;48.728;9.256;2023-03-03T01:00:02;35.58;;;18.15;;
12177;SDS011;6152;48.728;9.256;2023-03-03T01:02:29;34.00;;;18.67;;
12177;SDS011;6152;48.728;9.256;2023-03-03T01:04:55;37.97;;;20.27;;
12177;SDS011;6152;48.728;9.256;2023-03-03T01:07:22;36.27;;;18.53;;
12177;SDS011;6152;48.728;9.256;2023-03-03T01:09:48;36.37;;;18.83;;
12177;SDS011;6152;48.728;9.256;2023-03-03T01:12:14;38.47;;;20.00;;
12177;SDS011;6152;48.728;9.256;2023-03-03T01:14:41;37.33;;;19.13;;
12177;SDS011;6152;48.728;9.256;2023-03-03T01:17:09;34.87;;;18.27;;
12177;SDS011;6152;48.728;9.256;2023-03-03T01:19:35;36.87;;;19.20;;
12177;SDS011;6152;48.728;9.256;2023-03-03T01:22:01;37.37;;;18.63;;
12177;SDS011;6152;48.728;9.256;2023-03-03T01:24:27;33.80;;;18.70;;
12177;SDS011;6152;48.728;9.256;2023-03-03T01:26:53;33.53;;;19.20;;
12177;SDS011;6152;48.728;9.256;2023-03-03T01:29:19;38.63;;;20.33;;
12177;SDS011;6152;48.728;9.256;2023-03-03T01:31:45;37.03;;;19.40;;
12177;SDS011;6152;48.728;9.256;2023-03-03T01:34:12;41.20;;;20.67;;
12177;SDS011;6152;48.728;9.256;2023-03-03T01:36:38;38.60;;;19.73;;
12177;SDS011;6152;48.728;9.256;2023-03-03T01:39:04;38.40;;;20.40;;
12177;SDS011;6152;48.728;9.256;2023-03-03T01:41:30;41.53;;;19.97;;
12177;SDS011;6152;48.728;9.256;2023-03-03T01:44:00;38.23;;;19.27;;
12177;SDS011;6152;48.728;9.256;2023-03-03T01:46:31;34.90;;;18.37;;
12177;SDS011;6152;48.728;9.256;2023-03-03T01:49:13;42.77;;;20.80;;
12177;SDS011;6152;48.728;9.256;2023-03-03T01:51:44;38.63;;;20.00;;
12177;SDS011;6152;48.728;9.256;2023-03-03T01:54:17;37.47;;;19.33;;
12177;SDS011;6152;48.728;9.256;2023-03-03T01:56:54;32.77;;;19.00;;
12177;SDS011;6152;48.728;9.256;2023-03-03T01:59:26;39.03;;;20.03;;
12177;SDS011;6152;48.728;9.256;2023-03-03T02:01:58;33.23;;;19.20;;
12177;SDS011;6152;48.728;9.256;2023-03-03T02:04:24;33.60;;;19.10;;
12177;SDS011;6152;48.728;9.256;2023-03-03T02:06:53;40.00;;;19.93;;
12177;SDS011;6152;48.728;9.256;2023-03-03T02:09:34;34.73;;;18.90;;
12177;SDS011;6152;48.728;9.256;2023-03-03T02:12:19;38.13;;;20.40;;
12177;SDS011;6152;48.728;9.256;2023-03-03T02:14:49;33.27;;;19.37;;
12177;SDS011;6152;48.728;9.256;2023-03-03T02:17:16;37.47;;;21.03;;
12177;SDS011;6152;48.728;9.256;2023-03-03T02:22:45;37.33;;;20.03;;
12177;SDS011;6152;48.728;9.256;2023-03-03T02:25:20;36.90;;;19.83;;
12177;SDS011;6152;48.728;9.256;2023-03-03T02:28:06;40.97;;;20.83;;
12177;SDS011;6152;48.728;9.256;2023-03-03T02:30:35;35.60;;;20.43;;
12177;SDS011;6152;48.728;9.256;2023-03-03T02:33:03;35.23;;;20.20;;
12177;SDS011;6152;48.728;9.256;2023-03-03T02:35:31;40.73;;;21.07;;
12177;SDS011;6152;48.728;9.256;2023-03-03T02:40:54;44.23;;;21.63;;
12177;SDS011;6152;48.728;9.256;2023-03-03T02:43:26;41.13;;;21.30;;
12177;SDS011;6152;48.728;9.256;2023-03-03T02:46:00;37.20;;;21.03;;
12177;SDS011;6152;48.728;9.256;2023-03-03T02:48:27;37.87;;;20.53;;
12177;SDS011;6152;48.728;9.256;2023-03-03T02:50:53;35.17;;;19.87;;
12177;SDS011;6152;48.728;9.256;2023-03-03T02:53:19;35.70;;;19.60;;
12177;SDS011;6152;48.728;9.256;2023-03-03T02:55:45;40.13;;;20.90;;
12177;SDS011;6152;48.728;9.256;2023-03-03T02:58:11;39.27;;;20.57;;
12177;SDS011;6152;48.728;9.256;2023-03-03T03:00:37;39.20;;;20.53;;
12177;SDS011;6152;48.728;9.256;2023-03-03T03:03:03;44.00;;;20.77;;
12177;SDS011;6152;48.728;9.256;2023-03-03T03:05:29;40.83;;;21.13;;
12177;SDS011;6152;48.728;9.256;2023-03-03T03:07:55;40.23;;;21.27;;
12177;SDS011;6152;48.728;9.256;2023-03-03T03:10:21;40.87;;;20.83;;
12177;SDS011;6152;48.728;9.256;2023-03-03T03:12:47;41.13;;;21.70;;
12177;SDS011;6152;48.728;9.256;2023-03-03T03:15:13;43.30;;;22.00;;
12177;SDS011;6152;48.728;9.256;2023-03-03T03:17:40;40.77;;;21.63;;
12177;SDS011;6152;48.728;9.256;2023-03-03T03:20:06;42.80;;;22.37;;
12177;SDS011;6152;48.728;9.256;2023-03-03T03:22:33;42.97;;;22.70;;
12177;SDS011;6152;48.728;9.256;2023-03-03T03:24:59;42.73;;;21.50;;
12177;SDS011;6152;48.728;9.256;2023-03-03T03:27:25;43.33;;;22.43;;
12177;SDS011;6152;48.728;9.256;2023-03-03T03:29:51;43.60;;;22.00;;
12177;SDS011;6152;48.728;9.256;2023-03-03T03:32:17;45.20;;;23.13;;
12177;SDS011;6152;48.728;9.256;2023-03-03T03:34:43;42.83;;;23.10;;
12177;SDS011;6152;48.728;9.256;2023-03-03T03:37:09;42.93;;;22.80;;
12177;SDS011;6152;48.728;9.256;2023-03-03T03:39:36;46.42;;;23.88;;
12177;SDS011;6152;48.728;9.256;2023-03-03T03:42:02;45.80;;;23.23;;
12177;SDS011;6152;48.728;9.256;2023-03-03T03:44:28;40.60;;;21.90;;
12177;SDS011;6152;48.728;9.256;2023-03-03T03:46:54;44.27;;;23.77;;
12177;SDS011;6152;48.728;9.256;2023-03-03T03:49:20;45.53;;;22.17;;
12177;SDS011;6152;48.728;9.256;2023-03-03T03:51:46;46.03;;;24.00;;
12177;SDS011;6152;48.728;9.256;2023-03-03T03:54:12;48.63;;;23.97;;
12177;SDS011;6152;48.728;9.256;2023-03-03T03:56:38;47.42;;;24.08;;
12177;SDS011;6152;48.728;9.256;2023-03-03T03:59:05;42.27;;;22.77;;
12177;SDS011;6152;48.728;9.256;2023-03-03T04:01:32;46.38;;;23.52;;
12177;SDS011;6152;48.728;9.256;2023-03-03T04:03:58;43.00;;;22.75;;
12177;SDS011;6152;48.728;9.256;2023-03-03T04:06:24;41.22;;;21.98;;
12177;SDS011;6152;48.728;9.256;2023-03-03T04:08:50;46.30;;;24.10;;
12177;SDS011;6152;48.728;9.256;2023-03-03T04:11:16;44.15;;;21.77;;
12177;SDS011;6152;48.728;9.256;2023-03-03T04:13:43;44.75;;;22.27;;
12177;SDS011;6152;48.728;9.256;2023-03-03T04:16:09;45.97;;;23.85;;
12177;SDS011;6152;48.728;9.256;2023-03-03T04:18:35;45.63;;;23.73;;
12177;SDS011;6152;48.728;9.256;2023-03-03T04:21:01;42.75;;;22.05;;
12177;SDS011;6152;48.728;9.256;2023-03-03T04:23:27;47.25;;;22.30;;
12177;SDS011;6152;48.728;9.256;2023-03-03T04:25:54;45.22;;;22.95;;
12177;SDS011;6152;48.728;9.256;2023-03-03T04:28:20;39.80;;;21.73;;
12177;SDS011;6152;48.728;9.256;2023-03-03T04:30:49;34.33;;;19.83;;
12177;SDS011;6152;48.728;9.256;2023-03-03T04:33:15;37.33;;;19.47;;
12177;SDS011;6152;48.728;9.256;2023-03-03T04:35:41;37.17;;;19.57;;
12177;SDS011;6152;48.728;9.256;2023-03-03T04:38:07;36.47;;;19.47;;
12177;SDS011;6152;48.728;9.256;2023-03-03T04:40:33;38.50;;;20.60;;
12177;SDS011;6152;48.728;9.256;2023-03-03T04:42:59;38.70;;;19.27;;
12177;SDS011;6152;48.728;9.256;2023-03-03T04:45:25;37.60;;;20.17;;
12177;SDS011;6152;48.728;9.256;2023-03-03T04:47:51;37.67;;;20.67;;
12177;SDS011;6152;48.728;9.256;2023-03-03T04:50:17;37.77;;;19.87;;
12177;SDS011;6152;48.728;9.256;2023-03-03T04:52:44;39.33;;;21.47;;
12177;SDS011;6152;48.728;9.256;2023-03-03T04:55:10;45.33;;;22.63;;
12177;SDS011;6152;48.728;9.256;2023-03-03T04:57:38;46.63;;;23.20;;
12177;SDS011;6152;48.728;9.256;2023-03-03T05:00:04;40.43;;;22.13;;
12177;SDS011;6152;48.728;9.256;2023-03-03T05:02:31;41.53;;;22.27;;
12177;SDS011;6152;48.728;9.256;2023-03-03T05:04:57;45.70;;;23.33;;
12177;SDS011;6152;48.728;9.256;2023-03-03T05:07:23;38.77;;;22.13;;
12177;SDS011;6152;48.728;9.256;2023-03-03T05:09:49;43.43;;;22.07;;
12177;SDS011;6152;48.728;9.256;2023-03-03T05:12:15;40.77;;;22.23;;
12177;SDS011;6152;48.728;9.256;2023-03-03T05:14:41;42.43;;;22.47;;
12177;SDS011;6152;48.728;9.256;2023-03-03T05:17:08;45.80;;;24.73;;
12177;SDS011;6152;48.728;9.256;2023-03-03T05:19:34;43.00;;;23.20;;
12177;SDS011;6152;48.728;9.256;2023-03-03T05:22:00;45.47;;;23.07;;
12177;SDS011;6152;48.728;9.256;2023-03-03T05:24:26;42.40;;;23.00;;
12177;SDS011;6152;48.728;9.256;2023-03-03T05:26:52;46.50;;;22.17;;
12177;SDS011;6152;48.728;9.256;2023-03-03T05:29:19;43.80;;;23.43;;
12177;SDS011;6152;48.728;9.256;2023-03-03T05:31:45;44.25;;;23.00;;
12177;SDS011;6152;48.728;9.256;2023-03-03T05:34:11;39.78;;;21.73;;
12177;SDS011;6152;48.728;9.256;2023-03-03T05:36:37;42.88;;;21.85;;
12177;SDS011;6152;48.728;9.256;2023-03-03T05:39:03;46.38;;;22.45;;
12177;SDS011;6152;48.728;9.256;2023-03-03T05:41:29;45.28;;;22.73;;
12177;SDS011;6152;48.728;9.256;2023-03-03T05:43:56;40.03;;;21.17;;
12177;SDS011;6152;48.728;9.256;2023-03-03T05:46:22;46.57;;;23.27;;
12177;SDS011;6152;48.728;9.256;2023-03-03T05:48:48;42.93;;;21.60;;
12177;SDS011;6152;48.728;9.256;2023-03-03T05:51:14;42.07;;;21.83;;
12177;SDS011;6152;48.728;9.256;2023-03-03T05:53:40;39.70;;;22.63;;
12177;SDS011;6152;48.728;9.256;2023-03-03T05:56:06;38.23;;;20.77;;
12177;SDS011;6152;48.728;9.256;2023-03-03T05:58:32;38.63;;;20.63;;
12177;SDS011;6152;48.728;9.256;2023-03-03T06:00:58;41.93;;;21.40;;
12177;SDS011;6152;48.728;9.256;2023-03-03T06:03:25;40.43;;;20.53;;
12177;SDS011;6152;48.728;9.256;2023-03-03T06:05:51;43.93;;;21.77;;
12177;SDS011;6152;48.728;9.256;2023-03-03T06:08:17;42.53;;;20.73;;
12177;SDS011;6152;48.728;9.256;2023-03-03T06:10:43;43.00;;;20.15;;
12177;SDS011;6152;48.728;9.256;2023-03-03T06:13:09;42.20;;;21.40;;
12177;SDS011;6152;48.728;9.256;2023-03-03T06:15:35;41.85;;;20.90;;
12177;SDS011;6152;48.728;9.256;2023-03-03T06:18:02;42.53;;;22.38;;
12177;SDS011;6152;48.728;9.256;2023-03-03T06:20:28;45.10;;;21.60;;
12177;SDS011;6152;48.728;9.256;2023-03-03T06:22:54;37.72;;;20.08;;
12177;SDS011;6152;48.728;9.256;2023-03-03T06:25:20;42.53;;;20.92;;
12177;SDS011;6152;48.728;9.256;2023-03-03T06:27:46;42.60;;;21.95;;
12177;SDS011;6152;48.728;9.256;2023-03-03T06:30:12;41.42;;;21.30;;
12177;SDS011;6152;48.728;9.256;2023-03-03T06:32:39;39.30;;;19.90;;
12177;SDS011;6152;48.728;9.256;2023-03-03T06:35:05;37.15;;;19.77;;
12177;SDS011;6152;48.728;9.256;2023-03-03T06:37:31;43.87;;;21.30;;
12177;SDS011;6152;48.728;9.256;2023-03-03T06:39:58;39.17;;;21.15;;
12177;SDS011;6152;48.728;9.256;2023-03-03T06:42:24;41.70;;;21.17;;
12177;SDS011;6152;48.728;9.256;2023-03-03T06:44:50;46.63;;;22.67;;
12177;SDS011;6152;48.728;9.256;2023-03-03T06:47:16;42.03;;;20.98;;
12177;SDS011;6152;48.728;9.256;2023-03-03T06:49:42;41.28;;;20.45;;
12177;SDS011;6152;48.728;9.256;2023-03-03T06:52:10;38.85;;;21.35;;
12177;SDS011;6152;48.728;9.256;2023-03-03T06:54:43;37.37;;;20.00;;
12177;SDS011;6152;48.728;9.256;2023-03-03T06:57:14;43.22;;;22.25;;
12177;SDS011;6152;48.728;9.256;2023-03-03T06:59:45;45.00;;;21.27;;
12177;SDS011;6152;48.728;9.256;2023-03-03T07:02:15;35.72;;;20.65;;
12177;SDS011;6152;48.728;9.256;2023-03-03T07:04:42;39.42;;;20.60;;
12177;SDS011;6152;48.728;9.256;2023-03-03T07:09:43;42.53;;;21.63;;
12177;SDS011;6152;48.728;9.256;2023-03-03T07:12:18;40.55;;;20.38;;
12177;SDS011;6152;48.728;9.256;2023-03-03T07:14:47;39.17;;;20.60;;
12177;SDS011;6152;48.728;9.256;2023-03-03T07:17:23;38.33;;;20.67;;
12177;SDS011;6152;48.728;9.256;2023-03-03T07:19:50;37.28;;;19.38;;
12177;SDS011;6152;48.728;9.256;2023-03-03T07:22:21;40.90;;;18.52;;
12177;SDS011;6152;48.728;9.256;2023-03-03T07:24:56;34.88;;;18.75;;
12177;SDS011;6152;48.728;9.256;2023-03-03T07:27:29;33.28;;;18.30;;
12177;SDS011;6152;48.728;9.256;2023-03-03T07:30:38;32.73;;;16.40;;
12177;SDS011;6152;48.728;9.256;2023-03-03T07:32:49;27.33;;;16.88;;
12177;SDS011;6152;48.728;9.256;2023-03-03T07:41:03;30.00;;;18.10;;
12177;SDS011;6152;48.728;9.256;2023-03-03T07:43:42;28.48;;;16.35;;
12177;SDS011;6152;48.728;9.256;2023-03-03T07:49:19;31.65;;;16.58;;
12177;SDS011;6152;48.728;9.256;2023-03-03T07:51:46;31.10;;;17.88;;
12177;SDS011;6152;48.728;9.256;2023-03-03T07:56:44;33.38;;;17.70;;
12177;SDS011;6152;48.728;9.256;2023-03-03T07:59:17;34.15;;;18.63;;
12177;SDS011;6152;48.728;9.256;2023-03-03T08:01:54;32.80;;;17.83;;
12177;SDS011;6152;48.728;9.256;2023-03-03T08:07:10;29.55;;;16.42;;
12177;SDS011;6152;48.728;9.256;2023-03-03T08:14:56;32.65;;;17.50;;
12177;SDS011;6152;48.728;9.256;2023-03-03T08:17:53;33.53;;;16.90;;
12177;SDS011;6152;48.728;9.256;2023-03-03T08:23:08;35.80;;;18.10;;
12177;SDS011;6152;48.728;9.256;2023-03-03T08:25:35;29.77;;;17.45;;
12177;SDS011;6152;48.728;9.256;2023-03-03T08:28:01;30.83;;;17.90;;
12177;SDS011;6152;48.728;9.256;2023-03-03T08:30:27;31.95;;;17.38;;
12177;SDS011;6152;48.728;9.256;2023-03-03T08:32:54;33.83;;;17.98;;
12177;SDS011;6152;48.728;9.256;2023-03-03T08:35:20;27.75;;;17.10;;
12177;SDS011;6152;48.728;9.256;2023-03-03T08:37:47;33.33;;;17.95;;
12177;SDS011;6152;48.728;9.256;2023-03-03T08:40:13;34.17;;;17.17;;
12177;SDS011;6152;48.728;9.256;2023-03-03T08:42:39;31.35;;;16.88;;
12177;SDS011;6152;48.728;9.256;2023-03-03T08:45:05;34.28;;;16.98;;
12177;SDS011;6152;48.728;9.256;2023-03-03T08:47:31;32.40;;;17.58;;
12177;SDS011;6152;48.728;9.256;2023-03-03T08:49:58;29.90;;;17.40;;
12177;SDS011;6152;48.728;9.256;2023-03-03T08:52:24;32.40;;;17.63;;
12177;SDS011;6152;48.728;9.256;2023-03-03T08:54:50;27.60;;;17.58;;
12177;SDS011;6152;48.728;9.256;2023-03-03T08:57:17;30.02;;;16.63;;
12177;SDS011;6152;48.728;9.256;2023-03-03T08:59:43;33.42;;;17.45;;
12177;SDS011;6152;48.728;9.256;2023-03-03T09:02:11;32.63;;;17.98;;
12177;SDS011;6152;48.728;9.256;2023-03-03T09:04:37;30.25;;;17.95;;
12177;SDS011;6152;48.728;9.256;2023-03-03T09:07:03;29.48;;;17.33;;
12177;SDS011;6152;48.728;9.256;2023-03-03T09:09:29;30.52;;;17.50;;
12177;SDS011;6152;48.728;9.256;2023-03-03T09:11:57;29.92;;;17.27;;
12177;SDS011;6152;48.728;9.256;2023-03-03T09:14:38;29.27;;;17.88;;
12177;SDS011;6152;48.728;9.256;2023-03-03T09:17:07;30.17;;;17.73;;
12177;SDS011;6152;48.728;9.256;2023-03-03T09:19:47;32.10;;;18.73;;
12177;SDS011;6152;48.728;9.256;2023-03-03T09:24:47;29.40;;;16.95;;
12177;SDS011;6152;48.728;9.256;2023-03-03T09:27:24;29.63;;;18.52;;
12177;SDS011;6152;48.728;9.256;2023-03-03T09:29:54;28.27;;;17.95;;
12177;SDS011;6152;48.728;9.256;2023-03-03T09:32:46;24.75;;;16.08;;
12177;SDS011;6152;48.728;9.256;2023-03-03T09:35:25;30.35;;;17.48;;
12177;SDS011;6152;48.728;9.256;2023-03-03T09:38:01;29.08;;;17.90;;
12177;SDS011;6152;48.728;9.256;2023-03-03T09:40:50;28.83;;;17.25;;
12177;SDS011;6152;48.728;9.256;2023-03-03T09:43:30;34.00;;;18.65;;
12177;SDS011;6152;48.728;9.256;2023-03-03T09:54:46;30.65;;;18.05;;
12177;SDS011;6152;48.728;9.256;2023-03-03T09:57:32;30.83;;;17.27;;
12177;SDS011;6152;48.728;9.256;2023-03-03T10:03:07;28.35;;;18.70;;
12177;SDS011;6152;48.728;9.256;2023-03-03T10:05:51;28.50;;;17.80;;
12177;SDS011;6152;48.728;9.256;2023-03-03T10:11:59;28.55;;;17.13;;
12177;SDS011;6152;48.728;9.256;2023-03-03T10:17:19;29.52;;;18.48;;
12177;SDS011;6152;48.728;9.256;2023-03-03T10:37:22;30.48;;;19.08;;
12177;SDS011;6152;48.728;9.256;2023-03-03T10:56:44;26.00;;;17.60;;
12177;SDS011;6152;48.728;9.256;2023-03-03T11:12:40;25.30;;;17.98;;
12177;SDS011;6152;48.728;9.256;2023-03-03T11:15:22;31.85;;;18.92;;
12177;SDS011;6152;48.728;9.256;2023-03-03T11:23:54;25.40;;;17.00;;
12177;SDS011;6152;48.728;9.256;2023-03-03T11:29:06;27.75;;;17.83;;
12177;SDS011;6152;48.728;9.256;2023-03-03T11:34:14;26.52;;;17.77;;
12177;SDS011;6152;48.728;9.256;2023-03-03T11:36:43;28.50;;;17.48;;
12177;SDS011;6152;48.728;9.256;2023-03-03T11:39:19;28.33;;;18.38;;
12177;SDS011;6152;48.728;9.256;2023-03-03T11:44:39;30.38;;;18.55;;
12177;SDS011;6152;48.728;9.256;2023-03-03T11:49:53;30.95;;;18.50;;
12177;SDS011;6152;48.728;9.256;2023-03-03T11:52:26;30.15;;;18.20;;
12177;SDS011;6152;48.728;9.256;2023-03-03T11:57:53;25.35;;;17.35;;
12177;SDS011;6152;48.728;9.256;2023-03-03T12:00:44;26.60;;;17.13;;
12177;SDS011;6152;48.728;9.256;2023-03-03T12:05:56;24.33;;;16.83;;
12177;SDS011;6152;48.728;9.256;2023-03-03T12:17:34;23.42;;;17.08;;
12177;SDS011;6152;48.728;9.256;2023-03-03T12:20:27;23.58;;;17.77;;
12177;SDS011;6152;48.728;9.256;2023-03-03T12:25:50;23.10;;;16.88;;
12177;SDS011;6152;48.728;9.256;2023-03-03T12:28:29;24.05;;;18.40;;
12177;SDS011;6152;48.728;9.256;2023-03-03T12:31:15;25.63;;;18.00;;
12177;SDS011;6152;48.728;9.256;2023-03-03T12:33:48;24.13;;;18.48;;
12177;SDS011;6152;48.728;9.256;2023-03-03T12:39:08;22.35;;;17.70;;
12177;SDS011;6152;48.728;9.256;2023-03-03T12:42:20;22.10;;;17.92;;
12177;SDS011;6152;48.728;9.256;2023-03-03T12:47:50;21.85;;;16.73;;
12177;SDS011;6152;48.728;9.256;2023-03-03T12:50:37;23.33;;;18.00;;
12177;SDS011;6152;48.728;9.256;2023-03-03T12:56:39;24.00;;;18.60;;
12177;SDS011;6152;48.728;9.256;2023-03-03T13:02:02;22.58;;;16.98;;
12177;SDS011;6152;48.728;9.256;2023-03-03T13:07:32;24.77;;;17.25;;
12177;SDS011;6152;48.728;9.256;2023-03-03T13:13:02;23.85;;;17.42;;
12177;SDS011;6152;48.728;9.256;2023-03-03T13:15:34;25.00;;;17.70;;
12177;SDS011;6152;48.728;9.256;2023-03-03T13:18:29;23.67;;;16.83;;
12177;SDS011;6152;48.728;9.256;2023-03-03T13:21:15;31.58;;;17.25;;
12177;SDS011;6152;48.728;9.256;2023-03-03T13:24:23;24.20;;;16.17;;
12177;SDS011;6152;48.728;9.256;2023-03-03T13:27:09;24.52;;;16.40;;
12177;SDS011;6152;48.728;9.256;2023-03-03T13:29:49;25.95;;;16.65;;
12177;SDS011;6152;48.728;9.256;2023-03-03T13:32:22;27.13;;;17.08;;
12177;SDS011;6152;48.728;9.256;2023-03-03T13:35:15;24.67;;;16.40;;
12177;SDS011;6152;48.728;9.256;2023-03-03T13:37:52;25.27;;;16.10;;
12177;SDS011;6152;48.728;9.256;2023-03-03T13:41:04;24.65;;;16.75;;
12177;SDS011;6152;48.728;9.256;2023-03-03T13:43:21;24.50;;;15.30;;
12177;SDS011;6152;48.728;9.256;2023-03-03T13:48:47;22.48;;;15.93;;
12177;SDS011;6152;48.728;9.256;2023-03-03T14:05:03;24.15;;;15.77;;
12177;SDS011;6152;48.728;9.256;2023-03-03T14:07:58;25.33;;;16.40;;
12177;SDS011;6152;48.728;9.256;2023-03-03T14:13:31;24.67;;;15.57;;
12177;SDS011;6152;48.728;9.256;2023-03-03T14:18:28;24.98;;;16.08;;
12177;SDS011;6152;48.728;9.256;2023-03-03T14:26:09;27.38;;;15.98;;
12177;SDS011;6152;48.728;9.256;2023-03-03T14:29:03;22.55;;;15.75;;
12177;SDS011;6152;48.728;9.256;2023-03-03T14:31:39;24.60;;;15.98;;
12177;SDS011;6152;48.728;9.256;2023-03-03T14:36:51;27.58;;;15.48;;
12177;SDS011;6152;48.728;9.256;2023-03-03T14:39:38;23.35;;;15.07;;
12177;SDS011;6152;48.728;9.256;2023-03-03T14:42:28;26.17;;;16.10;;
12177;SDS011;6152;48.728;9.256;2023-03-03T14:44:59;23.45;;;15.63;;
12177;SDS011;6152;48.728;9.256;2023-03-03T14:47:39;25.77;;;15.82;;
12177;SDS011;6152;48.728;9.256;2023-03-03T14:53:06;23.63;;;15.07;;
12177;SDS011;6152;48.728;9.256;2023-03-03T14:55:40;23.42;;;15.25;;
12177;SDS011;6152;48.728;9.256;2023-03-03T14:58:30;23.77;;;15.98;;
12177;SDS011;6152;48.728;9.256;2023-03-03T15:03:45;28.92;;;15.40;;
12177;SDS011;6152;48.728;9.256;2023-03-03T15:06:27;24.42;;;16.13;;
12177;SDS011;6152;48.728;9.256;2023-03-03T15:17:54;26.58;;;16.83;;
12177;SDS011;6152;48.728;9.256;2023-03-03T15:23:26;25.88;;;16.27;;
12177;SDS011;6152;48.728;9.256;2023-03-03T15:28:38;28.42;;;16.30;;
12177;SDS011;6152;48.728;9.256;2023-03-03T15:39:54;25.13;;;15.68;;
12177;SDS011;6152;48.728;9.256;2023-03-03T15:42:28;28.13;;;15.70;;
12177;SDS011;6152;48.728;9.256;2023-03-03T15:45:33;25.38;;;16.02;;
12177;SDS011;6152;48.728;9.256;2023-03-03T15:53:44;29.48;;;16.67;;
12177;SDS011;6152;48.728;9.256;2023-03-03T16:04:33;27.85;;;16.40;;
12177;SDS011;6152;48.728;9.256;2023-03-03T16:07:12;27.27;;;16.02;;
12177;SDS011;6152;48.728;9.256;2023-03-03T16:10:02;27.42;;;16.35;;
12177;SDS011;6152;48.728;9.256;2023-03-03T16:18:15;28.77;;;17.77;;
12177;SDS011;6152;48.728;9.256;2023-03-03T16:20:58;30.45;;;17.27;;
12177;SDS011;6152;48.728;9.256;2023-03-03T16:23:29;28.08;;;17.77;;
12177;SDS011;6152;48.728;9.256;2023-03-03T16:28:37;31.75;;;18.33;;
12177;SDS011;6152;48.728;9.256;2023-03-03T16:31:22;27.88;;;17.83;;
12177;SDS011;6152;48.728;9.256;2023-03-03T16:34:06;33.20;;;20.80;;
12177;SDS011;6152;48.728;9.256;2023-03-03T16:42:28;45.17;;;24.60;;
12177;SDS011;6152;48.728;9.256;2023-03-03T16:47:48;35.20;;;21.42;;
12177;SDS011;6152;48.728;9.256;2023-03-03T16:56:08;35.92;;;22.38;;
12177;SDS011;6152;48.728;9.256;2023-03-03T17:01:29;54.53;;;31.38;;
12177;SDS011;6152;48.728;9.256;2023-03-03T17:06:51;33.78;;;20.25;;
12177;SDS011;6152;48.728;9.256;2023-03-03T17:09:30;31.95;;;18.65;;
12177;SDS011;6152;48.728;9.256;2023-03-03T17:12:07;32.50;;;17.65;;
12177;SDS011;6152;48.728;9.256;2023-03-03T17:14:57;31.60;;;17.55;;
12177;SDS011;6152;48.728;9.256;2023-03-03T17:20:29;33.08;;;18.50;;
12177;SDS011;6152;48.728;9.256;2023-03-03T17:28:39;30.52;;;16.95;;
12177;SDS011;6152;48.728;9.256;2023-03-03T17:31:33;35.70;;;19.52;;
12177;SDS011;6152;48.728;9.256;2023-03-03T18:13:03;31.13;;;18.75;;
12177;SDS011;6152;48.728;9.256;2023-03-03T18:26:52;47.03;;;24.02;;
12177;SDS011;6152;48.728;9.256;2023-03-03T18:29:23;46.92;;;27.70;;
12177;SDS011;6152;48.728;9.256;2023-03-03T18:37:32;37.15;;;22.88;;
12177;SDS011;6152;48.728;9.256;2023-03-03T18:58:25;36.10;;;19.33;;
12177;SDS011;6152;48.728;9.256;2023-03-03T19:01:30;35.90;;;20.02;;
12177;SDS011;6152;48.728;9.256;2023-03-03T19:09:08;39.92;;;21.98;;
12177;SDS011;6152;48.728;9.256;2023-03-03T19:11:42;37.90;;;22.48;;
12177;SDS011;6152;48.728;9.256;2023-03-03T19:16:50;32.33;;;18.15;;
12177;SDS011;6152;48.728;9.256;2023-03-03T19:19:32;32.35;;;18.17;;
12177;SDS011;6152;48.728;9.256;2023-03-03T19:27:42;35.63;;;18.60;;
12177;SDS011;6152;48.728;9.256;2023-03-03T19:30:31;32.38;;;19.67;;
12177;SDS011;6152;48.728;9.256;2023-03-03T19:50:11;31.90;;;19.92;;
12177;SDS011;6152;48.728;9.256;2023-03-03T19:53:16;37.95;;;20.25;;
12177;SDS011;6152;48.728;9.256;2023-03-03T20:01:49;42.95;;;21.55;;
12177;SDS011;6152;48.728;9.256;2023-03-03T20:05:24;43.88;;;23.05;;
12177;SDS011;6152;48.728;9.256;2023-03-03T20:07:22;42.65;;;22.25;;
12177;SDS011;6152;48.728;9.256;2023-03-03T20:10:21;36.03;;;19.75;;
12177;SDS011;6152;48.728;9.256;2023-03-03T20:13:14;43.28;;;22.00;;
12177;SDS011;6152;48.728;9.256;2023-03-03T20:16:10;35.78;;;20.50;;
12177;SDS011;6152;48.728;9.256;2023-03-03T20:21:34;37.40;;;19.67;;
12177;SDS011;6152;48.728;9.256;2023-03-03T20:27:04;37.65;;;20.00;;
12177;SDS011;6152;48.728;9.256;2023-03-03T20:49:22;30.63;;;17.02;;
12177;SDS011;6152;48.728;9.256;2023-03-03T20:57:41;33.47;;;17.50;;
12177;SDS011;6152;48.728;9.256;2023-03-03T21:00:34;29.52;;;16.23;;
12177;SDS011;6152;48.728;9.256;2023-03-03T21:05:55;32.00;;;16.77;;
12177;SDS011;6152;48.728;9.256;2023-03-03T21:08:45;31.27;;;17.30;;
12177;SDS011;6152;48.728;9.256;2023-03-03T21:13:55;29.98;;;16.95;;
12177;SDS011;6152;48.728;9.256;2023-03-03T21:19:04;32.50;;;17.55;;
12177;SDS011;6152;48.728;9.256;2023-03-03T21:24:08;27.40;;;15.93;;
12177;SDS011;6152;48.728;9.256;2023-03-03T21:29:25;33.00;;;16.85;;
12177;SDS011;6152;48.728;9.256;2023-03-03T21:31:56;30.73;;;17.38;;
12177;SDS011;6152;48.728;9.256;2023-03-03T21:36:58;32.92;;;17.70;;
12177;SDS011;6152;48.728;9.256;2023-03-03T21:41:57;35.00;;;17.95;;
12177;SDS011;6152;48.728;9.256;2023-03-03T21:44:47;33.10;;;18.20;;
12177;SDS011;6152;48.728;9.256;2023-03-03T21:47:15;31.30;;;17.30;;
12177;SDS011;6152;48.728;9.256;2023-03-03T21:49:46;33.08;;;18.08;;
12177;SDS011;6152;48.728;9.256;2023-03-03T21:52:14;30.77;;;17.00;;
12177;SDS011;6152;48.728;9.256;2023-03-03T21:54:42;32.25;;;17.02;;
12177;SDS011;6152;48.728;9.256;2023-03-03T21:57:09;33.80;;;17.25;;
12177;SDS011;6152;48.728;9.256;2023-03-03T21:59:36;35.67;;;18.13;;
12177;SDS011;6152;48.728;9.256;2023-03-03T22:02:02;33.50;;;18.23;;
12177;SDS011;6152;48.728;9.256;2023-03-03T22:04:29;29.95;;;17.20;;
12177;SDS011;6152;48.728;9.256;2023-03-03T22:06:55;28.83;;;15.65;;
12177;SDS011;6152;48.728;9.256;2023-03-03T22:09:21;28.25;;;16.25;;
12177;SDS011;6152;48.728;9.256;2023-03-03T22:11:47;27.48;;;15.98;;
12177;SDS011;6152;48.728;9.256;2023-03-03T22:14:13;30.48;;;15.88;;
12177;SDS011;6152;48.728;9.256;2023-03-03T22:16:40;33.30;;;16.70;;